Bramon, Sweden

6:49 AM CET on February 13, 2016 (GMT +0100)
Sundsvall-Harnosand | | Change Station
CLOSE
Current Station
Airport
Location: Sundsvall-Harnosand Airpor,
Elevation: 10 ft
Nearby Weather Stations

Elev 10 ft 62.53 °N, 17.44 °E | Updated 29 minutes ago

Light Snow
Light Snow
25 °F
Feels Like 20 °F
N
4
Wind Variable Wind from WNW

Today
High -- | Low -- °F
--% Chance of Precip.
Yesterday
High -- | Low -- °F
Precip. -- in
Pressure 29.36 in
Visibility -9999.0 miles
Clouds Scattered Clouds 1000 ft
Overcast 2200 ft
Windchill 20 °F
Dew Point 25 °F
Humidity 100%
Rainfall 0.00 in
Snow Depth Not available.
7:43 AM 4:23 PM
Waxing Crescent, 27% visible
METAR ESNN 130520Z AUTO 30003KT 3700 -SN SCT010/// OVC022/// M04/M04 Q0994 R16/79//35
Pressure 29.36 in
Visibility -9999.0 miles
Clouds Scattered Clouds 1000 ft
Overcast 2200 ft
Windchill 20 °F
Dew Point 25 °F
Humidity 100%
Rainfall 0.00 in
Snow Depth Not available.
7:43 AM 4:23 PM
Waxing Crescent, 27% visible
METAR ESNN 130520Z AUTO 30003KT 3700 -SN SCT010/// OVC022/// M04/M04 Q0994 R16/79//35

10-Day Weather Forecast

Almanac

Astronomy

Feb. 13, 2016 Rise Set
Actual Time
Civil Twilight
Nautical Twilight
Astronomical Twilight
Moon
Length of Visible Light
Length of Day
Tomorrow will be .
, % of the Moon is Illuminated

Today's Extremes

Country Highs Country Lows

Community

WunderPhotos

Upload Photos

1,892,507 photos uploaded!

WunderBlog® & News

Nearby

Air Quality

  Air Quality AQ Index Pollutant
Not available.

Snow Depth

Station Depth Elevation

Earthquake Activity

City Distance Mag. Time & Date
Minimum magnitude displayed is 2.5.

Coastal Water Temperatures

Place Temperature

Stations

Nearby Weather Stations

Station Location Temp. Windchill Dew Point Humidity Wind Precip. Elev Updated Type